sensor_id;sensor_type;location;lat;lon;timestamp;temperature;humidity
10233;DHT22;5161;48.174;11.756;2023-03-14T00:00:11;13.30;67.30
10233;DHT22;5161;48.174;11.756;2023-03-14T00:02:37;13.20;67.10
10233;DHT22;5161;48.174;11.756;2023-03-14T00:05:03;13.20;67.20
10233;DHT22;5161;48.174;11.756;2023-03-14T00:07:33;13.20;67.40
10233;DHT22;5161;48.174;11.756;2023-03-14T00:10:01;13.10;67.60
10233;DHT22;5161;48.174;11.756;2023-03-14T00:12:29;13.10;67.50
10233;DHT22;5161;48.174;11.756;2023-03-14T00:14:55;13.00;67.40
10233;DHT22;5161;48.174;11.756;2023-03-14T00:17:20;13.00;67.50
10233;DHT22;5161;48.174;11.756;2023-03-14T00:19:46;12.90;67.60
10233;DHT22;5161;48.174;11.756;2023-03-14T00:22:12;12.90;67.60
10233;DHT22;5161;48.174;11.756;2023-03-14T00:24:37;12.80;67.60
10233;DHT22;5161;48.174;11.756;2023-03-14T00:27:03;12.80;68.10
10233;DHT22;5161;48.174;11.756;2023-03-14T00:29:28;12.90;69.00
10233;DHT22;5161;48.174;11.756;2023-03-14T00:31:54;12.90;68.30
10233;DHT22;5161;48.174;11.756;2023-03-14T00:34:19;12.80;68.20
10233;DHT22;5161;48.174;11.756;2023-03-14T00:36:45;12.80;68.30
10233;DHT22;5161;48.174;11.756;2023-03-14T00:39:10;12.80;68.30
10233;DHT22;5161;48.174;11.756;2023-03-14T00:41:36;12.80;68.40
10233;DHT22;5161;48.174;11.756;2023-03-14T00:44:01;12.80;68.70
10233;DHT22;5161;48.174;11.756;2023-03-14T00:46:27;12.80;68.60
10233;DHT22;5161;48.174;11.756;2023-03-14T00:48:53;12.70;68.80
10233;DHT22;5161;48.174;11.756;2023-03-14T00:51:18;12.70;69.00
10233;DHT22;5161;48.174;11.756;2023-03-14T00:53:44;12.80;69.50
10233;DHT22;5161;48.174;11.756;2023-03-14T00:56:11;12.80;69.30
10233;DHT22;5161;48.174;11.756;2023-03-14T00:58:38;12.80;69.70
10233;DHT22;5161;48.174;11.756;2023-03-14T01:01:09;12.80;69.50
10233;DHT22;5161;48.174;11.756;2023-03-14T01:03:35;12.80;69.60
10233;DHT22;5161;48.174;11.756;2023-03-14T01:06:21;12.80;69.80
10233;DHT22;5161;48.174;11.756;2023-03-14T01:08:47;12.80;70.70
10233;DHT22;5161;48.174;11.756;2023-03-14T01:11:17;12.80;70.30
10233;DHT22;5161;48.174;11.756;2023-03-14T01:13:43;12.80;70.30
10233;DHT22;5161;48.174;11.756;2023-03-14T01:16:10;12.80;71.10
10233;DHT22;5161;48.174;11.756;2023-03-14T01:18:37;12.80;71.00
10233;DHT22;5161;48.174;11.756;2023-03-14T01:21:10;12.80;71.80
10233;DHT22;5161;48.174;11.756;2023-03-14T01:23:36;12.80;70.60
10233;DHT22;5161;48.174;11.756;2023-03-14T01:26:02;12.80;71.10
10233;DHT22;5161;48.174;11.756;2023-03-14T01:28:27;12.80;71.30
10233;DHT22;5161;48.174;11.756;2023-03-14T01:30:53;12.80;71.10
10233;DHT22;5161;48.174;11.756;2023-03-14T01:33:18;12.80;71.00
10233;DHT22;5161;48.174;11.756;2023-03-14T01:35:44;12.80;71.40
10233;DHT22;5161;48.174;11.756;2023-03-14T01:38:09;12.80;72.00
10233;DHT22;5161;48.174;11.756;2023-03-14T01:40:42;12.70;72.20
10233;DHT22;5161;48.174;11.756;2023-03-14T01:43:15;12.70;72.20
10233;DHT22;5161;48.174;11.756;2023-03-14T01:48:39;12.60;73.40
10233;DHT22;5161;48.174;11.756;2023-03-14T01:51:11;12.60;73.10
10233;DHT22;5161;48.174;11.756;2023-03-14T01:53:39;12.60;74.10
10233;DHT22;5161;48.174;11.756;2023-03-14T01:56:09;12.50;73.40
10233;DHT22;5161;48.174;11.756;2023-03-14T01:58:37;12.50;73.60
10233;DHT22;5161;48.174;11.756;2023-03-14T02:01:05;12.60;74.10
10233;DHT22;5161;48.174;11.756;2023-03-14T02:03:36;12.60;74.10
10233;DHT22;5161;48.174;11.756;2023-03-14T02:06:06;12.60;75.40
10233;DHT22;5161;48.174;11.756;2023-03-14T02:08:33;12.60;74.90
10233;DHT22;5161;48.174;11.756;2023-03-14T02:11:00;12.60;75.80
10233;DHT22;5161;48.174;11.756;2023-03-14T02:13:26;12.50;75.90
10233;DHT22;5161;48.174;11.756;2023-03-14T02:15:52;12.50;76.70
10233;DHT22;5161;48.174;11.756;2023-03-14T02:18:18;12.30;76.70
10233;DHT22;5161;48.174;11.756;2023-03-14T02:21:01;12.30;76.60
10233;DHT22;5161;48.174;11.756;2023-03-14T02:24:13;12.20;78.70
10233;DHT22;5161;48.174;11.756;2023-03-14T02:29:32;12.10;76.50
10233;DHT22;5161;48.174;11.756;2023-03-14T02:31:58;12.10;78.30
10233;DHT22;5161;48.174;11.756;2023-03-14T02:34:25;11.90;77.10
10233;DHT22;5161;48.174;11.756;2023-03-14T02:36:51;11.80;77.00
10233;DHT22;5161;48.174;11.756;2023-03-14T02:39:36;11.80;78.90
10233;DHT22;5161;48.174;11.756;2023-03-14T02:42:03;11.70;78.10
10233;DHT22;5161;48.174;11.756;2023-03-14T02:44:29;11.50;78.60
10233;DHT22;5161;48.174;11.756;2023-03-14T02:46:55;11.50;79.80
10233;DHT22;5161;48.174;11.756;2023-03-14T02:49:20;11.50;79.20
10233;DHT22;5161;48.174;11.756;2023-03-14T02:51:46;11.40;79.60
10233;DHT22;5161;48.174;11.756;2023-03-14T02:54:14;11.50;79.70
10233;DHT22;5161;48.174;11.756;2023-03-14T02:56:40;11.50;80.70
10233;DHT22;5161;48.174;11.756;2023-03-14T02:59:06;11.50;80.50
10233;DHT22;5161;48.174;11.756;2023-03-14T03:01:32;11.50;79.40
10233;DHT22;5161;48.174;11.756;2023-03-14T03:03:58;11.60;80.80
10233;DHT22;5161;48.174;11.756;2023-03-14T03:06:24;11.50;80.10
10233;DHT22;5161;48.174;11.756;2023-03-14T03:08:49;11.40;80.60
10233;DHT22;5161;48.174;11.756;2023-03-14T03:11:15;11.20;81.50
10233;DHT22;5161;48.174;11.756;2023-03-14T03:13:41;11.10;81.20
10233;DHT22;5161;48.174;11.756;2023-03-14T03:16:06;11.00;80.80
10233;DHT22;5161;48.174;11.756;2023-03-14T03:18:32;10.90;80.20
10233;DHT22;5161;48.174;11.756;2023-03-14T03:21:03;10.80;80.30
10233;DHT22;5161;48.174;11.756;2023-03-14T03:23:29;10.90;79.30
10233;DHT22;5161;48.174;11.756;2023-03-14T03:25:55;10.90;80.20
10233;DHT22;5161;48.174;11.756;2023-03-14T03:28:20;10.90;80.70
10233;DHT22;5161;48.174;11.756;2023-03-14T03:30:46;10.90;80.60
10233;DHT22;5161;48.174;11.756;2023-03-14T03:33:13;10.90;81.00
10233;DHT22;5161;48.174;11.756;2023-03-14T03:35:46;11.00;80.80
10233;DHT22;5161;48.174;11.756;2023-03-14T03:38:13;11.00;79.80
10233;DHT22;5161;48.174;11.756;2023-03-14T03:40:38;11.10;81.70
10233;DHT22;5161;48.174;11.756;2023-03-14T03:43:04;11.10;81.80
10233;DHT22;5161;48.174;11.756;2023-03-14T03:45:30;11.10;81.70
10233;DHT22;5161;48.174;11.756;2023-03-14T03:47:58;11.00;81.30
10233;DHT22;5161;48.174;11.756;2023-03-14T03:50:27;11.00;81.50
10233;DHT22;5161;48.174;11.756;2023-03-14T03:52:52;11.00;80.50
10233;DHT22;5161;48.174;11.756;2023-03-14T03:55:18;11.00;80.60
10233;DHT22;5161;48.174;11.756;2023-03-14T03:57:47;11.00;80.60
10233;DHT22;5161;48.174;11.756;2023-03-14T04:00:13;10.90;80.30
10233;DHT22;5161;48.174;11.756;2023-03-14T04:02:44;10.90;80.40
10233;DHT22;5161;48.174;11.756;2023-03-14T04:05:15;10.80;79.60
10233;DHT22;5161;48.174;11.756;2023-03-14T04:07:44;10.70;79.50
10233;DHT22;5161;48.174;11.756;2023-03-14T04:10:10;10.50;79.50
10233;DHT22;5161;48.174;11.756;2023-03-14T04:12:38;10.50;79.20
10233;DHT22;5161;48.174;11.756;2023-03-14T04:15:04;10.50;79.60
10233;DHT22;5161;48.174;11.756;2023-03-14T04:17:30;10.50;78.70
10233;DHT22;5161;48.174;11.756;2023-03-14T04:19:55;10.40;79.10
10233;DHT22;5161;48.174;11.756;2023-03-14T04:22:21;10.40;79.10
10233;DHT22;5161;48.174;11.756;2023-03-14T04:24:46;10.40;79.20
10233;DHT22;5161;48.174;11.756;2023-03-14T04:27:12;10.40;79.20
10233;DHT22;5161;48.174;11.756;2023-03-14T04:29:40;10.40;79.00
10233;DHT22;5161;48.174;11.756;2023-03-14T04:32:05;10.40;79.10
10233;DHT22;5161;48.174;11.756;2023-03-14T04:34:31;10.50;79.60
10233;DHT22;5161;48.174;11.756;2023-03-14T04:36:56;10.50;79.60
10233;DHT22;5161;48.174;11.756;2023-03-14T04:39:22;10.50;80.00
10233;DHT22;5161;48.174;11.756;2023-03-14T04:41:47;10.60;80.20
10233;DHT22;5161;48.174;11.756;2023-03-14T04:44:13;10.60;80.30
10233;DHT22;5161;48.174;11.756;2023-03-14T04:46:38;10.60;80.30
10233;DHT22;5161;48.174;11.756;2023-03-14T04:49:04;10.50;80.00
10233;DHT22;5161;48.174;11.756;2023-03-14T04:51:30;10.50;80.20
10233;DHT22;5161;48.174;11.756;2023-03-14T04:53:55;10.50;79.80
10233;DHT22;5161;48.174;11.756;2023-03-14T04:56:21;10.60;80.10
10233;DHT22;5161;48.174;11.756;2023-03-14T04:58:49;10.50;79.60
10233;DHT22;5161;48.174;11.756;2023-03-14T05:01:15;10.50;78.80
10233;DHT22;5161;48.174;11.756;2023-03-14T05:03:41;10.60;79.00
10233;DHT22;5161;48.174;11.756;2023-03-14T05:06:07;10.60;78.40
10233;DHT22;5161;48.174;11.756;2023-03-14T05:08:36;10.60;78.50
10233;DHT22;5161;48.174;11.756;2023-03-14T05:11:04;10.50;78.10
10233;DHT22;5161;48.174;11.756;2023-03-14T05:13:33;10.40;78.70
10233;DHT22;5161;48.174;11.756;2023-03-14T05:16:06;10.40;78.10
10233;DHT22;5161;48.174;11.756;2023-03-14T05:18:33;10.40;78.30
10233;DHT22;5161;48.174;11.756;2023-03-14T05:20:58;10.40;79.50
10233;DHT22;5161;48.174;11.756;2023-03-14T05:23:24;10.50;79.30
10233;DHT22;5161;48.174;11.756;2023-03-14T05:25:50;10.50;79.00
10233;DHT22;5161;48.174;11.756;2023-03-14T05:28:15;10.60;79.10
10233;DHT22;5161;48.174;11.756;2023-03-14T05:30:41;10.60;78.70
10233;DHT22;5161;48.174;11.756;2023-03-14T05:33:06;10.60;78.00
10233;DHT22;5161;48.174;11.756;2023-03-14T05:35:32;10.50;78.50
10233;DHT22;5161;48.174;11.756;2023-03-14T05:37:58;10.50;78.70
10233;DHT22;5161;48.174;11.756;2023-03-14T05:40:23;10.50;78.50
10233;DHT22;5161;48.174;11.756;2023-03-14T05:42:49;10.40;79.10
10233;DHT22;5161;48.174;11.756;2023-03-14T05:45:15;10.50;79.10
10233;DHT22;5161;48.174;11.756;2023-03-14T05:47:40;10.40;78.50
10233;DHT22;5161;48.174;11.756;2023-03-14T05:50:06;10.50;79.00
10233;DHT22;5161;48.174;11.756;2023-03-14T05:52:32;10.40;78.50
10233;DHT22;5161;48.174;11.756;2023-03-14T05:54:57;10.30;79.10
10233;DHT22;5161;48.174;11.756;2023-03-14T05:57:23;10.30;79.10
10233;DHT22;5161;48.174;11.756;2023-03-14T05:59:48;10.40;79.10
10233;DHT22;5161;48.174;11.756;2023-03-14T06:02:14;10.40;79.30
10233;DHT22;5161;48.174;11.756;2023-03-14T06:04:40;10.40;79.00
10233;DHT22;5161;48.174;11.756;2023-03-14T06:07:05;10.40;79.10
10233;DHT22;5161;48.174;11.756;2023-03-14T06:09:31;10.50;79.30
10233;DHT22;5161;48.174;11.756;2023-03-14T06:11:56;10.50;78.90
10233;DHT22;5161;48.174;11.756;2023-03-14T06:14:22;10.60;79.00
10233;DHT22;5161;48.174;11.756;2023-03-14T06:16:47;10.60;78.70
10233;DHT22;5161;48.174;11.756;2023-03-14T06:19:14;10.50;78.30
10233;DHT22;5161;48.174;11.756;2023-03-14T06:21:40;10.50;78.70
10233;DHT22;5161;48.174;11.756;2023-03-14T06:24:05;10.60;79.10
10233;DHT22;5161;48.174;11.756;2023-03-14T06:26:31;10.60;78.90
10233;DHT22;5161;48.174;11.756;2023-03-14T06:28:56;10.60;78.50
10233;DHT22;5161;48.174;11.756;2023-03-14T06:31:22;10.60;78.60
10233;DHT22;5161;48.174;11.756;2023-03-14T06:33:47;10.60;78.60
10233;DHT22;5161;48.174;11.756;2023-03-14T06:36:13;10.60;78.60
10233;DHT22;5161;48.174;11.756;2023-03-14T06:38:38;10.60;78.70
10233;DHT22;5161;48.174;11.756;2023-03-14T06:41:05;10.60;78.60
10233;DHT22;5161;48.174;11.756;2023-03-14T06:43:31;10.50;78.30
10233;DHT22;5161;48.174;11.756;2023-03-14T06:45:57;10.50;78.70
10233;DHT22;5161;48.174;11.756;2023-03-14T06:48:22;10.50;78.40
10233;DHT22;5161;48.174;11.756;2023-03-14T06:50:48;10.50;78.60
10233;DHT22;5161;48.174;11.756;2023-03-14T06:53:14;10.60;78.60
10233;DHT22;5161;48.174;11.756;2023-03-14T06:55:39;10.60;78.60
10233;DHT22;5161;48.174;11.756;2023-03-14T06:58:05;10.70;78.80
10233;DHT22;5161;48.174;11.756;2023-03-14T07:00:33;10.80;79.30
10233;DHT22;5161;48.174;11.756;2023-03-14T07:02:59;10.80;78.40
10233;DHT22;5161;48.174;11.756;2023-03-14T07:05:25;10.80;78.60
10233;DHT22;5161;48.174;11.756;2023-03-14T07:07:50;10.80;78.60
10233;DHT22;5161;48.174;11.756;2023-03-14T07:10:16;10.80;78.60
10233;DHT22;5161;48.174;11.756;2023-03-14T07:12:42;10.80;78.80
10233;DHT22;5161;48.174;11.756;2023-03-14T07:15:08;10.80;78.80
10233;DHT22;5161;48.174;11.756;2023-03-14T07:17:34;10.80;78.20
10233;DHT22;5161;48.174;11.756;2023-03-14T07:19:59;10.70;77.60
10233;DHT22;5161;48.174;11.756;2023-03-14T07:22:26;10.60;77.40
10233;DHT22;5161;48.174;11.756;2023-03-14T07:24:52;10.60;77.50
10233;DHT22;5161;48.174;11.756;2023-03-14T07:27:17;10.60;77.70
10233;DHT22;5161;48.174;11.756;2023-03-14T07:29:43;10.60;77.50
10233;DHT22;5161;48.174;11.756;2023-03-14T07:32:08;10.70;76.90
10233;DHT22;5161;48.174;11.756;2023-03-14T07:34:34;10.70;77.50
10233;DHT22;5161;48.174;11.756;2023-03-14T07:37:00;10.70;77.30
10233;DHT22;5161;48.174;11.756;2023-03-14T07:39:26;10.70;76.50
10233;DHT22;5161;48.174;11.756;2023-03-14T07:41:51;10.70;77.30
10233;DHT22;5161;48.174;11.756;2023-03-14T07:44:17;10.70;77.10
10233;DHT22;5161;48.174;11.756;2023-03-14T07:46:42;10.80;77.20
10233;DHT22;5161;48.174;11.756;2023-03-14T07:49:08;10.70;76.90
10233;DHT22;5161;48.174;11.756;2023-03-14T07:51:33;10.80;77.00
10233;DHT22;5161;48.174;11.756;2023-03-14T07:53:59;10.80;77.20
10233;DHT22;5161;48.174;11.756;2023-03-14T07:56:25;10.80;76.30
10233;DHT22;5161;48.174;11.756;2023-03-14T07:58:50;10.80;76.20
10233;DHT22;5161;48.174;11.756;2023-03-14T08:01:16;10.80;76.70
10233;DHT22;5161;48.174;11.756;2023-03-14T08:03:41;10.80;77.20
10233;DHT22;5161;48.174;11.756;2023-03-14T08:06:07;10.90;76.80
10233;DHT22;5161;48.174;11.756;2023-03-14T08:08:35;10.90;76.90
10233;DHT22;5161;48.174;11.756;2023-03-14T08:11:05;11.00;76.50
10233;DHT22;5161;48.174;11.756;2023-03-14T08:13:31;11.00;76.80
10233;DHT22;5161;48.174;11.756;2023-03-14T08:15:56;11.00;76.30
10233;DHT22;5161;48.174;11.756;2023-03-14T08:18:22;11.00;76.50
10233;DHT22;5161;48.174;11.756;2023-03-14T08:20:47;10.90;75.50
10233;DHT22;5161;48.174;11.756;2023-03-14T08:23:13;11.00;76.50
10233;DHT22;5161;48.174;11.756;2023-03-14T08:25:39;11.00;76.20
10233;DHT22;5161;48.174;11.756;2023-03-14T08:28:05;11.10;75.50
10233;DHT22;5161;48.174;11.756;2023-03-14T08:30:32;11.10;75.00
10233;DHT22;5161;48.174;11.756;2023-03-14T08:32:58;11.20;76.20
10233;DHT22;5161;48.174;11.756;2023-03-14T08:35:26;11.20;76.30
10233;DHT22;5161;48.174;11.756;2023-03-14T08:37:53;11.30;75.00
10233;DHT22;5161;48.174;11.756;2023-03-14T08:40:19;11.30;74.80
10233;DHT22;5161;48.174;11.756;2023-03-14T08:42:45;11.30;74.70
10233;DHT22;5161;48.174;11.756;2023-03-14T08:45:13;11.20;75.30
10233;DHT22;5161;48.174;11.756;2023-03-14T08:47:39;11.20;75.50
10233;DHT22;5161;48.174;11.756;2023-03-14T08:50:06;11.20;73.70
10233;DHT22;5161;48.174;11.756;2023-03-14T08:52:32;11.30;74.10
10233;DHT22;5161;48.174;11.756;2023-03-14T08:54:58;11.30;74.00
10233;DHT22;5161;48.174;11.756;2023-03-14T08:57:24;11.30;74.10
10233;DHT22;5161;48.174;11.756;2023-03-14T08:59:56;11.20;73.70
10233;DHT22;5161;48.174;11.756;2023-03-14T09:02:23;11.20;73.20
10233;DHT22;5161;48.174;11.756;2023-03-14T09:04:52;11.20;73.30
10233;DHT22;5161;48.174;11.756;2023-03-14T09:07:19;11.20;73.70
10233;DHT22;5161;48.174;11.756;2023-03-14T09:09:45;11.30;72.90
10233;DHT22;5161;48.174;11.756;2023-03-14T09:12:12;11.40;73.80
10233;DHT22;5161;48.174;11.756;2023-03-14T09:14:38;11.30;72.60
10233;DHT22;5161;48.174;11.756;2023-03-14T09:17:06;11.30;73.00
10233;DHT22;5161;48.174;11.756;2023-03-14T09:19:32;11.40;73.20
10233;DHT22;5161;48.174;11.756;2023-03-14T09:21:58;11.40;72.50
10233;DHT22;5161;48.174;11.756;2023-03-14T09:24:24;11.40;73.00
10233;DHT22;5161;48.174;11.756;2023-03-14T09:26:50;11.40;72.90
10233;DHT22;5161;48.174;11.756;2023-03-14T09:29:19;11.40;72.40
10233;DHT22;5161;48.174;11.756;2023-03-14T09:32:07;11.40;72.90
10233;DHT22;5161;48.174;11.756;2023-03-14T09:34:36;11.50;73.40
10233;DHT22;5161;48.174;11.756;2023-03-14T09:37:19;11.50;73.10
10233;DHT22;5161;48.174;11.756;2023-03-14T09:42:43;11.60;73.50
10233;DHT22;5161;48.174;11.756;2023-03-14T09:45:47;11.60;73.00
10233;DHT22;5161;48.174;11.756;2023-03-14T09:48:35;11.50;71.20
10233;DHT22;5161;48.174;11.756;2023-03-14T09:51:10;11.50;72.10
10233;DHT22;5161;48.174;11.756;2023-03-14T09:57:24;11.50;72.20
10233;DHT22;5161;48.174;11.756;2023-03-14T09:59:56;11.50;72.00
10233;DHT22;5161;48.174;11.756;2023-03-14T10:04:52;11.50;72.00
10233;DHT22;5161;48.174;11.756;2023-03-14T10:07:30;11.50;72.50
10233;DHT22;5161;48.174;11.756;2023-03-14T10:09:56;11.50;72.50
10233;DHT22;5161;48.174;11.756;2023-03-14T10:12:36;11.50;72.70
10233;DHT22;5161;48.174;11.756;2023-03-14T10:15:08;11.50;72.20
10233;DHT22;5161;48.174;11.756;2023-03-14T10:17:43;11.60;72.50
10233;DHT22;5161;48.174;11.756;2023-03-14T10:20:30;11.70;72.50
10233;DHT22;5161;48.174;11.756;2023-03-14T10:25:42;11.70;73.00
10233;DHT22;5161;48.174;11.756;2023-03-14T10:28:30;11.80;72.90
10233;DHT22;5161;48.174;11.756;2023-03-14T10:30:57;11.80;73.00
10233;DHT22;5161;48.174;11.756;2023-03-14T10:33:35;11.90;73.40
10233;DHT22;5161;48.174;11.756;2023-03-14T10:36:23;12.00;73.60
10233;DHT22;5161;48.174;11.756;2023-03-14T10:41:50;12.10;73.00
10233;DHT22;5161;48.174;11.756;2023-03-14T10:44:21;12.10;72.90
10233;DHT22;5161;48.174;11.756;2023-03-14T10:46:57;12.10;72.00
10233;DHT22;5161;48.174;11.756;2023-03-14T10:49:44;12.10;72.40
10233;DHT22;5161;48.174;11.756;2023-03-14T10:52:18;12.20;70.10
10233;DHT22;5161;48.174;11.756;2023-03-14T10:54:49;12.20;70.30
10233;DHT22;5161;48.174;11.756;2023-03-14T10:57:19;12.30;69.60
10233;DHT22;5161;48.174;11.756;2023-03-14T10:59:45;12.20;70.10
10233;DHT22;5161;48.174;11.756;2023-03-14T11:02:22;12.20;69.00
10233;DHT22;5161;48.174;11.756;2023-03-14T11:05:38;12.20;69.50
10233;DHT22;5161;48.174;11.756;2023-03-14T11:08:04;12.10;69.40
10233;DHT22;5161;48.174;11.756;2023-03-14T11:10:35;12.10;69.60
10233;DHT22;5161;48.174;11.756;2023-03-14T11:15:53;12.00;69.90
10233;DHT22;5161;48.174;11.756;2023-03-14T11:29:40;11.90;68.90
10233;DHT22;5161;48.174;11.756;2023-03-14T11:32:17;12.00;68.30
10233;DHT22;5161;48.174;11.756;2023-03-14T11:34:53;12.10;68.90
10233;DHT22;5161;48.174;11.756;2023-03-14T11:37:28;12.10;68.50
10233;DHT22;5161;48.174;11.756;2023-03-14T11:40:10;12.20;69.40
10233;DHT22;5161;48.174;11.756;2023-03-14T11:42:39;12.20;68.40
10233;DHT22;5161;48.174;11.756;2023-03-14T11:45:18;12.20;68.40
10233;DHT22;5161;48.174;11.756;2023-03-14T11:47:51;12.30;68.30
10233;DHT22;5161;48.174;11.756;2023-03-14T11:50:24;12.30;67.70
10233;DHT22;5161;48.174;11.756;2023-03-14T11:53:11;12.40;67.50
10233;DHT22;5161;48.174;11.756;2023-03-14T11:55:41;12.40;66.30
10233;DHT22;5161;48.174;11.756;2023-03-14T11:58:20;12.40;66.20
10233;DHT22;5161;48.174;11.756;2023-03-14T12:00:50;12.40;65.90
10233;DHT22;5161;48.174;11.756;2023-03-14T12:03:36;12.40;66.80
10233;DHT22;5161;48.174;11.756;2023-03-14T12:06:26;12.50;66.10
10233;DHT22;5161;48.174;11.756;2023-03-14T12:08:57;12.50;66.00
10233;DHT22;5161;48.174;11.756;2023-03-14T12:13:55;12.40;65.30
10233;DHT22;5161;48.174;11.756;2023-03-14T12:18:50;12.50;65.80
10233;DHT22;5161;48.174;11.756;2023-03-14T12:21:17;12.60;66.20
10233;DHT22;5161;48.174;11.756;2023-03-14T12:23:51;12.60;66.10
10233;DHT22;5161;48.174;11.756;2023-03-14T12:26:25;12.70;65.80
10233;DHT22;5161;48.174;11.756;2023-03-14T12:29:14;12.70;65.80
10233;DHT22;5161;48.174;11.756;2023-03-14T12:31:44;12.60;65.80
10233;DHT22;5161;48.174;11.756;2023-03-14T12:39:37;12.60;65.60
10233;DHT22;5161;48.174;11.756;2023-03-14T12:42:57;12.60;65.80
10233;DHT22;5161;48.174;11.756;2023-03-14T12:45:34;12.60;65.30
10233;DHT22;5161;48.174;11.756;2023-03-14T12:53:28;12.50;64.50
10233;DHT22;5161;48.174;11.756;2023-03-14T13:02:20;12.40;64.40
10233;DHT22;5161;48.174;11.756;2023-03-14T13:05:04;12.40;64.60
10233;DHT22;5161;48.174;11.756;2023-03-14T13:10:30;12.60;65.10
10233;DHT22;5161;48.174;11.756;2023-03-14T13:15:46;13.00;65.00
10233;DHT22;5161;48.174;11.756;2023-03-14T13:20:51;13.00;64.30
10233;DHT22;5161;48.174;11.756;2023-03-14T13:23:27;12.80;64.50
10233;DHT22;5161;48.174;11.756;2023-03-14T13:25:56;12.50;64.30
10233;DHT22;5161;48.174;11.756;2023-03-14T13:28:22;12.40;64.90
10233;DHT22;5161;48.174;11.756;2023-03-14T13:30:50;12.40;64.90
10233;DHT22;5161;48.174;11.756;2023-03-14T13:33:22;12.30;65.20
10233;DHT22;5161;48.174;11.756;2023-03-14T13:35:57;12.40;65.40
10233;DHT22;5161;48.174;11.756;2023-03-14T13:38:24;12.40;65.60
10233;DHT22;5161;48.174;11.756;2023-03-14T13:40:54;12.50;66.00
10233;DHT22;5161;48.174;11.756;2023-03-14T13:43:28;12.60;66.30
10233;DHT22;5161;48.174;11.756;2023-03-14T13:48:58;12.50;66.10
10233;DHT22;5161;48.174;11.756;2023-03-14T13:51:26;12.50;66.30
10233;DHT22;5161;48.174;11.756;2023-03-14T13:53:57;12.50;66.40
10233;DHT22;5161;48.174;11.756;2023-03-14T13:56:29;12.30;66.40
10233;DHT22;5161;48.174;11.756;2023-03-14T13:58:55;12.10;66.10
10233;DHT22;5161;48.174;11.756;2023-03-14T14:01:35;12.00;66.20
10233;DHT22;5161;48.174;11.756;2023-03-14T14:04:07;12.00;66.60
10233;DHT22;5161;48.174;11.756;2023-03-14T14:06:38;11.80;66.40
10233;DHT22;5161;48.174;11.756;2023-03-14T14:09:14;11.70;67.10
10233;DHT22;5161;48.174;11.756;2023-03-14T14:14:22;11.70;68.40
10233;DHT22;5161;48.174;11.756;2023-03-14T14:16:50;11.40;69.10
10233;DHT22;5161;48.174;11.756;2023-03-14T14:19:16;11.30;69.70
10233;DHT22;5161;48.174;11.756;2023-03-14T14:21:43;11.20;70.40
10233;DHT22;5161;48.174;11.756;2023-03-14T14:24:12;11.30;70.90
10233;DHT22;5161;48.174;11.756;2023-03-14T14:26:51;11.20;71.20
10233;DHT22;5161;48.174;11.756;2023-03-14T14:29:32;11.00;72.40
10233;DHT22;5161;48.174;11.756;2023-03-14T14:32:02;11.00;73.50
10233;DHT22;5161;48.174;11.756;2023-03-14T14:34:28;10.90;73.30
10233;DHT22;5161;48.174;11.756;2023-03-14T14:36:54;10.80;75.30
10233;DHT22;5161;48.174;11.756;2023-03-14T14:39:26;10.50;76.00
10233;DHT22;5161;48.174;11.756;2023-03-14T14:41:54;10.60;76.70
10233;DHT22;5161;48.174;11.756;2023-03-14T14:44:32;10.60;75.50
10233;DHT22;5161;48.174;11.756;2023-03-14T14:46:58;10.40;76.30
10233;DHT22;5161;48.174;11.756;2023-03-14T14:49:32;10.30;76.70
10233;DHT22;5161;48.174;11.756;2023-03-14T14:52:13;10.10;76.00
10233;DHT22;5161;48.174;11.756;2023-03-14T14:54:53;10.00;74.40
10233;DHT22;5161;48.174;11.756;2023-03-14T14:57:24;9.90;75.80
10233;DHT22;5161;48.174;11.756;2023-03-14T14:59:55;9.90;77.20
10233;DHT22;5161;48.174;11.756;2023-03-14T15:02:46;9.90;77.10
10233;DHT22;5161;48.174;11.756;2023-03-14T15:05:14;9.80;75.00
10233;DHT22;5161;48.174;11.756;2023-03-14T15:07:40;9.50;76.70
10233;DHT22;5161;48.174;11.756;2023-03-14T15:10:09;9.50;77.20
10233;DHT22;5161;48.174;11.756;2023-03-14T15:12:35;9.40;76.40
10233;DHT22;5161;48.174;11.756;2023-03-14T15:15:00;9.50;77.70
10233;DHT22;5161;48.174;11.756;2023-03-14T15:17:26;9.50;77.50
10233;DHT22;5161;48.174;11.756;2023-03-14T15:19:52;9.50;77.90
10233;DHT22;5161;48.174;11.756;2023-03-14T15:22:18;9.60;78.30
10233;DHT22;5161;48.174;11.756;2023-03-14T15:24:44;9.50;77.80
10233;DHT22;5161;48.174;11.756;2023-03-14T15:27:13;9.50;78.10
10233;DHT22;5161;48.174;11.756;2023-03-14T15:29:43;9.50;76.70
10233;DHT22;5161;48.174;11.756;2023-03-14T15:32:14;9.40;76.10
10233;DHT22;5161;48.174;11.756;2023-03-14T15:34:45;9.30;75.90
10233;DHT22;5161;48.174;11.756;2023-03-14T15:37:13;9.40;76.60
10233;DHT22;5161;48.174;11.756;2023-03-14T15:39:45;9.60;78.10
10233;DHT22;5161;48.174;11.756;2023-03-14T15:42:13;9.70;78.40
10233;DHT22;5161;48.174;11.756;2023-03-14T15:45:00;9.80;78.80
10233;DHT22;5161;48.174;11.756;2023-03-14T15:47:28;9.80;76.80
10233;DHT22;5161;48.174;11.756;2023-03-14T15:49:57;9.80;78.40
10233;DHT22;5161;48.174;11.756;2023-03-14T15:52:33;9.70;78.80
10233;DHT22;5161;48.174;11.756;2023-03-14T15:55:02;9.50;77.20
10233;DHT22;5161;48.174;11.756;2023-03-14T15:57:46;9.40;76.80
10233;DHT22;5161;48.174;11.756;2023-03-14T16:00:26;9.20;74.00
10233;DHT22;5161;48.174;11.756;2023-03-14T16:02:52;9.10;74.90
10233;DHT22;5161;48.174;11.756;2023-03-14T16:05:18;8.90;75.90
10233;DHT22;5161;48.174;11.756;2023-03-14T16:08:03;8.70;75.40
10233;DHT22;5161;48.174;11.756;2023-03-14T16:10:30;8.90;76.00
10233;DHT22;5161;48.174;11.756;2023-03-14T16:12:56;8.90;76.10
10233;DHT22;5161;48.174;11.756;2023-03-14T16:15:22;9.00;75.10
10233;DHT22;5161;48.174;11.756;2023-03-14T16:17:51;8.90;75.60
10233;DHT22;5161;48.174;11.756;2023-03-14T16:20:17;9.00;75.20
10233;DHT22;5161;48.174;11.756;2023-03-14T16:22:45;9.10;74.90
10233;DHT22;5161;48.174;11.756;2023-03-14T16:25:11;9.10;74.70
10233;DHT22;5161;48.174;11.756;2023-03-14T16:27:37;9.20;74.70
10233;DHT22;5161;48.174;11.756;2023-03-14T16:30:03;9.10;73.70
10233;DHT22;5161;48.174;11.756;2023-03-14T16:32:28;9.10;74.00
10233;DHT22;5161;48.174;11.756;2023-03-14T16:34:54;9.10;73.80
10233;DHT22;5161;48.174;11.756;2023-03-14T16:37:22;9.10;74.20
10233;DHT22;5161;48.174;11.756;2023-03-14T16:39:47;9.20;74.00
10233;DHT22;5161;48.174;11.756;2023-03-14T16:42:14;9.10;72.90
10233;DHT22;5161;48.174;11.756;2023-03-14T16:44:40;9.10;72.80
10233;DHT22;5161;48.174;11.756;2023-03-14T16:47:06;9.10;70.30
10233;DHT22;5161;48.174;11.756;2023-03-14T16:49:32;9.20;70.90
10233;DHT22;5161;48.174;11.756;2023-03-14T16:51:58;9.20;68.90
10233;DHT22;5161;48.174;11.756;2023-03-14T16:54:24;9.20;68.60